AirNav   TITAN Aviation Fuels
 
 1369 users online  

3MO6 Kitty Hawk Estates Airport
Kearney, Missouri, USA

GOING TO KEARNEY?


FAA INFORMATION EFFECTIVE 01 DECEMBER 2022

Location

FAA Identifier: 3MO6
Lat/Long: 39-20-08.0040N 094-29-00.8270W
39-20.133400N 094-29.013783W
39.3355567,-94.4835631
(estimated)
Elevation: 1000 ft. / 305 m (estimated)
Variation: 05E (1985)
From city: 6 miles SW of KEARNEY, MO
Time zone: UTC -6 (UTC -5 during Daylight Saving Time)
Zip code: 64068

Airport Operations

Airport use: Private use. Permission required prior to landing
Activation date: 01/1976
Control tower: no
ARTCC: KANSAS CITY CENTER
FSS: COLUMBIA FLIGHT SERVICE STATION
Attendance: UNATNDD
Wind indicator: yes
Segmented circle: no

Airport Communications

WX AWOS-3T at GPH (8 nm E): 120.275 (816-407-3399)
WX ASOS at MCI (11 nm W): PHONE 816-329-2808
WX ASOS at MKC (14 nm S): 120.75 (816-329-2843)

Nearby radio navigation aids

VOR radial/distance  VOR name  Freq  Var
MCIr071/12.1KANSAS CITY VORTAC113.2505E
ANXr304/21.9NAPOLEON VORTAC114.0007E
BQSr235/33.3BRAYMER VOR/DME115.3503E

 
NDB name  Hdg/Dist  Freq  Var  ID
AMAZON145/38.323304EAZN .- --.. -.

Airport Services

Airframe service: NONE
Powerplant service: NONE

Runway Information

Runway N/S

Dimensions: 2200 x 60 ft. / 671 x 18 m
Surface: turf
RUNWAY N  RUNWAY S
Traffic pattern: rightleft
Obstructions: nonepline, 500 ft. from runway

Airport Ownership and Management from official FAA records

Ownership: Privately-owned
Owner: JERRY W. SULLIVAN
9812 E. 87TH
RAYTOWN, MO 64138
Phone 816-737-1351
RUSTIC DEVELOPMENT CO
Manager: JERRY W. SULLIVAN
9812 E. 87TH
RAYTOWN, MO 64138
Phone 816-781-6896

Airport Operational Statistics

Aircraft based on the field: 4
Single engine airplanes: 4
    

Additional Remarks

FOR CD CTC KANSAS CITY APCH AT 816-329-2710.

Instrument Procedures

There are no published instrument procedures at 3MO6.

Some nearby airports with instrument procedures:

KGPH - Midwest National Air Center Airport (8 nm E)
KMCI - Kansas City International Airport (11 nm W)
3EX - Excelsior Springs Memorial Airport (13 nm E)
KMKC - Charles B Wheeler Downtown Airport (14 nm S)
KFLV - Sherman Army Airfield (20 nm W)
 
Loc | Ops | Rwys | IFR | FBO | Links
Com | Nav | Svcs | Stats | Notes
Area around 3MO6 (Kitty Hawk Estates Airport)
 
Road maps at: MapQuest Bing Google
 
Aerial photo
No photo
 
Sectional chart

 
Airport distance calculator
Flying to Kitty Hawk Estates Airport? Find the distance to fly.

From to 3MO6

Sunrise and sunset
Times for 02-Dec-2022
 Local
(UTC-6)
 Zulu
(UTC)
Morning civil twilight06:5112:51
Sunrise07:2113:21
Sunset16:5422:54
Evening civil twilight17:2423:24

Current date and time
Zulu (UTC)  02-Dec-2022 17:48:43
Local (UTC-6)  02-Dec-2022 11:48:43
 
METAR
KGPH 
8nm E 
021715Z AUTO 21014G22KT 10SM OVC024 12/06 A2975 RMK AO2
KMCI 
12nm W 
021653Z 21020G36KT 9SM BKN015 OVC025 12/07 A2971 RMK AO2 PK WND 21040/1628 SLP059 T01170067
KMKC 
14nm S 
021654Z 20023G37KT 10SM OVC024 12/07 A2975 RMK AO2 PK WND 20037/1649 SLP074 T01220067
TAF
KMCI 
12nm W 
021227Z 0212/0312 20025G35KT P6SM BKN020 FM021500 20035G45KT P6SM BKN015 FM022300 23015KT P6SM FEW020 SCT200 FM030300 33030G40KT P6SM SCT020 FM030900 33013KT P6SM SKC
KMKC 
14nm S 
021227Z 0212/0312 19020G30KT P6SM BKN020 FM021500 21030G40KT P6SM BKN015 FM022300 23012KT P6SM FEW020 SCT200 FM030300 32025G35KT P6SM SCT020 FM030900 33011KT P6SM SKC
NOTAMs
Click for the latest NOTAMs
NOTAMs are issued by the DoD/FAA and will open in a separate window not controlled by AirNav.

 

 
 

Would you like to see your business listed on this page?

 If your business provides an interesting product or service to pilots, flight crews, aircraft, or users of the Kitty Hawk Estates Airport, you should consider listing it here.  To start the listing process, click on the button below
 
Add a business
 

Other Pages about Kitty Hawk Estates Airport

Update a link
 
Copyright © AirNav, LLC. All rights reserved. Privacy Policy  Contact